Time;durP1;ratioP1;P1;durP2;ratioP2;P2;SDS_P1;SDS_P2;PMS_P1;PMS_P2;Temp;Humidity;BMP_temperature;BMP_pressure;BME280_temperature;BME280_humidity;BME280_pressure;Samples;Min_cycle;Max_cycle;Signal;HPM_P1;HPM_P2
2022/03/13 00:00:36;;;;;;;7.15;3.05;;;19.60;59.50;;;;;;7933259;28;20180;-47
2022/03/13 00:04:21;;;;;;;5.70;2.80;;;19.60;59.30;;;;;;7933346;28;20210;-47
2022/03/13 00:08:27;;;;;;;5.15;3.17;;;19.60;59.50;;;;;;7933361;28;20187;-48
2022/03/13 00:12:15;;;;;;;5.82;3.08;;;19.60;59.60;;;;;;7932600;28;20234;-47
2022/03/13 00:16:03;;;;;;;3.83;2.78;;;19.60;59.60;;;;;;7932805;28;20168;-47
2022/03/13 00:19:49;;;;;;;4.60;2.97;;;19.60;59.60;;;;;;7932100;28;20197;-48
2022/03/13 00:23:35;;;;;;;5.63;2.67;;;19.60;59.60;;;;;;7932717;28;20191;-46
2022/03/13 00:27:21;;;;;;;6.82;3.30;;;19.60;59.60;;;;;;7932537;28;20180;-48
2022/03/13 00:31:06;;;;;;;2.83;2.45;;;19.50;59.60;;;;;;7932347;28;20345;-48
2022/03/13 00:34:52;;;;;;;5.72;2.78;;;19.50;59.70;;;;;;7932321;28;20192;-46
2022/03/13 00:38:37;;;;;;;4.25;2.72;;;19.50;59.80;;;;;;7932275;28;20172;-47
2022/03/13 00:42:24;;;;;;;3.55;2.67;;;19.60;59.80;;;;;;7932055;28;20251;-49
2022/03/13 00:46:09;;;;;;;4.72;2.97;;;19.50;59.70;;;;;;7932229;28;20210;-48
2022/03/13 00:49:55;;;;;;;4.03;2.78;;;19.50;59.90;;;;;;7931746;28;20296;-46
2022/03/13 00:53:43;;;;;;;4.13;2.72;;;19.50;59.80;;;;;;7932038;28;20188;-47
2022/03/13 00:57:29;;;;;;;4.80;3.20;;;19.50;59.80;;;;;;7932085;28;20160;-47
2022/03/13 01:01:16;;;;;;;5.22;3.10;;;19.50;59.80;;;;;;7931565;28;20168;-46
2022/03/13 01:05:01;;;;;;;4.95;2.80;;;19.50;59.60;;;;;;7931979;28;20233;-49
2022/03/13 01:08:48;;;;;;;4.80;2.78;;;19.50;59.80;;;;;;7931183;28;20637;-48
2022/03/13 01:12:34;;;;;;;3.28;2.55;;;19.50;59.70;;;;;;7931638;28;20196;-46
2022/03/13 01:16:27;;;;;;;4.95;2.95;;;19.40;59.60;;;;;;7931916;28;20181;-47
2022/03/13 01:20:18;;;;;;;6.32;2.80;;;19.40;59.80;;;;;;7931839;28;20180;-47
2022/03/13 01:24:18;;;;;;;4.15;2.80;;;19.40;59.80;;;;;;7931805;28;20195;-47
2022/03/13 01:28:04;;;;;;;4.93;3.05;;;19.40;59.90;;;;;;7931804;28;20167;-47
2022/03/13 01:31:49;;;;;;;4.25;2.65;;;19.40;59.70;;;;;;7932571;28;20700;-47
2022/03/13 01:35:35;;;;;;;4.38;2.72;;;19.40;59.80;;;;;;7937968;28;20267;-49
2022/03/13 01:39:20;;;;;;;4.93;2.92;;;19.40;59.80;;;;;;7937411;28;20259;-47
2022/03/13 01:43:06;;;;;;;3.58;2.70;;;19.40;59.80;;;;;;7937444;28;20216;-47
2022/03/13 01:46:52;;;;;;;5.55;2.65;;;19.40;59.70;;;;;;7937397;28;20176;-49
2022/03/13 01:50:37;;;;;;;5.30;2.90;;;19.30;59.60;;;;;;7936919;28;20264;-48
2022/03/13 01:54:23;;;;;;;3.92;2.80;;;19.30;59.60;;;;;;7937140;28;20233;-47
2022/03/13 01:58:09;;;;;;;4.18;3.03;;;19.30;59.60;;;;;;7936996;28;20255;-47
2022/03/13 02:01:56;;;;;;;4.50;3.03;;;19.30;59.60;;;;;;7937052;28;20191;-47
2022/03/13 02:05:48;;;;;;;6.30;2.92;;;19.30;59.60;;;;;;7936805;28;20531;-46
2022/03/13 02:09:34;;;;;;;3.53;2.90;;;19.30;59.60;;;;;;7936373;28;20192;-49
2022/03/13 02:13:20;;;;;;;4.65;2.67;;;19.30;59.60;;;;;;7936373;28;20196;-47
2022/03/13 02:17:05;;;;;;;6.75;2.55;;;19.30;59.60;;;;;;7936415;28;20258;-47
2022/03/13 02:20:51;;;;;;;4.60;3.10;;;19.30;59.50;;;;;;7936068;28;20225;-47
2022/03/13 02:24:36;;;;;;;4.03;2.78;;;19.30;59.50;;;;;;7936148;28;20692;-49
2022/03/13 02:28:25;;;;;;;4.55;2.95;;;19.30;59.60;;;;;;7935988;28;20259;-47
2022/03/13 02:32:10;;;;;;;4.10;3.17;;;19.30;59.50;;;;;;7935603;28;20226;-48
2022/03/13 02:36:00;;;;;;;4.53;3.13;;;19.30;59.40;;;;;;7935933;28;20176;-48
2022/03/13 02:39:46;;;;;;;6.43;3.13;;;19.30;59.40;;;;;;7935649;28;20180;-48
2022/03/13 02:43:31;;;;;;;4.38;2.83;;;19.20;59.30;;;;;;7933782;28;20196;-47
2022/03/13 02:47:17;;;;;;;5.03;3.25;;;19.30;60.10;;;;;;7935515;28;20667;-47
2022/03/13 02:51:02;;;;;;;5.13;3.22;;;19.20;59.40;;;;;;7934993;28;20208;-46
2022/03/13 02:54:48;;;;;;;4.97;2.92;;;19.20;59.40;;;;;;7935299;28;20277;-48
2022/03/13 02:58:34;;;;;;;3.42;2.67;;;19.20;59.40;;;;;;7935314;28;20164;-47
2022/03/13 03:02:19;;;;;;;4.65;3.28;;;19.20;59.30;;;;;;7935005;27;20200;-48
2022/03/13 03:06:05;;;;;;;3.97;2.92;;;19.20;59.30;;;;;;7935376;28;20172;-46
2022/03/13 03:09:50;;;;;;;5.32;3.28;;;19.20;59.30;;;;;;7934765;28;20208;-47
2022/03/13 03:13:36;;;;;;;4.03;2.78;;;19.20;59.30;;;;;;7935301;28;20199;-46
2022/03/13 03:17:21;;;;;;;4.47;2.90;;;19.20;59.20;;;;;;7934981;28;20197;-47
2022/03/13 03:21:07;;;;;;;3.60;2.70;;;19.20;59.20;;;;;;7934718;28;20178;-46
2022/03/13 03:24:53;;;;;;;4.32;2.60;;;19.20;59.20;;;;;;7934692;28;20271;-46
2022/03/13 03:28:38;;;;;;;4.30;2.85;;;19.20;59.30;;;;;;7934353;28;20191;-46
2022/03/13 03:32:24;;;;;;;3.50;2.90;;;19.20;59.30;;;;;;7933968;28;20210;-46
2022/03/13 03:36:15;;;;;;;4.05;2.67;;;19.10;59.30;;;;;;7934139;28;20184;-46
2022/03/13 03:40:00;;;;;;;5.45;3.25;;;19.10;59.30;;;;;;7933965;28;20176;-46
2022/03/13 03:43:46;;;;;;;4.10;2.63;;;19.10;59.30;;;;;;7933804;28;20204;-46
2022/03/13 03:47:32;;;;;;;6.15;2.92;;;19.20;59.40;;;;;;7933846;28;20176;-46
2022/03/13 03:51:17;;;;;;;3.40;2.70;;;19.10;59.30;;;;;;7933236;28;20207;-46
2022/03/13 03:55:03;;;;;;;3.75;2.97;;;19.10;59.20;;;;;;7932809;28;20822;-46
2022/03/13 03:58:48;;;;;;;4.38;2.85;;;19.10;59.30;;;;;;7933413;28;20221;-46
2022/03/13 04:02:34;;;;;;;4.50;3.13;;;19.10;59.20;;;;;;7933036;28;20196;-47
2022/03/13 04:06:20;;;;;;;5.00;3.30;;;19.10;59.30;;;;;;7933176;28;20184;-46
2022/03/13 04:10:08;;;;;;;4.75;2.97;;;19.10;59.10;;;;;;7932765;28;20207;-48
2022/03/13 04:13:53;;;;;;;3.83;2.92;;;19.10;59.10;;;;;;7932858;28;20198;-46
2022/03/13 04:17:38;;;;;;;4.00;2.97;;;19.00;59.10;;;;;;7933165;28;20195;-46
2022/03/13 04:21:24;;;;;;;4.53;3.13;;;19.10;59.10;;;;;;7932512;28;20187;-45
2022/03/13 04:25:11;;;;;;;5.97;3.20;;;19.10;59.10;;;;;;7932687;28;20542;-46
2022/03/13 04:28:56;;;;;;;4.10;3.10;;;19.00;59.20;;;;;;7932547;28;20524;-46
2022/03/13 04:32:42;;;;;;;4.57;3.00;;;19.00;59.20;;;;;;7932339;28;20196;-47
2022/03/13 04:36:29;;;;;;;4.25;3.00;;;19.00;59.30;;;;;;7932656;28;20221;-48
2022/03/13 04:40:14;;;;;;;3.53;2.63;;;19.00;59.30;;;;;;7932488;28;20203;-48
2022/03/13 04:44:01;;;;;;;5.90;3.00;;;19.00;59.30;;;;;;7929954;28;20226;-46
2022/03/13 04:47:46;;;;;;;11.88;3.55;;;19.00;59.30;;;;;;7913175;28;20688;-47
2022/03/13 04:51:32;;;;;;;7.47;3.33;;;19.00;59.20;;;;;;7899891;28;20242;-46
2022/03/13 04:55:18;;;;;;;8.82;3.05;;;19.00;59.10;;;;;;7920799;28;20214;-46
2022/03/13 04:59:07;;;;;;;10.48;3.40;;;19.00;59.20;;;;;;7932034;28;20535;-51
2022/03/13 05:02:54;;;;;;;11.30;3.58;;;19.00;59.20;;;;;;7919167;28;20204;-47
2022/03/13 05:06:40;;;;;;;6.05;3.17;;;19.00;59.20;;;;;;7903269;28;20180;-48
2022/03/13 05:10:35;;;;;;;5.68;3.10;;;19.00;59.20;;;;;;7906363;28;20200;-48
2022/03/13 05:14:21;;;;;;;9.07;3.55;;;19.00;59.20;;;;;;7924401;28;20252;-47
2022/03/13 05:18:07;;;;;;;3.97;2.97;;;19.00;59.20;;;;;;7938407;28;20199;-48
2022/03/13 05:21:52;;;;;;;6.43;2.90;;;19.00;59.30;;;;;;7925928;28;20269;-46
2022/03/13 05:25:39;;;;;;;4.72;2.75;;;19.00;59.20;;;;;;7906890;28;20184;-48
2022/03/13 05:29:25;;;;;;;14.93;3.53;;;19.00;59.20;;;;;;7905442;28;20826;-48
2022/03/13 05:33:10;;;;;;;5.45;3.15;;;19.00;59.20;;;;;;7906009;28;20189;-47
2022/03/13 05:36:55;;;;;;;5.63;2.90;;;19.00;59.20;;;;;;7910441;28;20176;-47
2022/03/13 05:40:42;;;;;;;4.57;3.05;;;19.00;59.20;;;;;;7937188;28;20176;-46
2022/03/13 05:44:29;;;;;;;3.60;2.92;;;19.10;59.10;;;;;;7937279;28;20211;-48
2022/03/13 05:48:17;;;;;;;5.20;3.20;;;19.10;58.90;;;;;;7930028;28;20188;-47
2022/03/13 05:52:04;;;;;;;6.28;3.05;;;19.10;59.10;;;;;;7905079;28;20239;-49
2022/03/13 05:55:51;;;;;;;6.65;3.05;;;19.10;59.10;;;;;;7905573;28;20185;-47
2022/03/13 05:59:38;;;;;;;7.65;3.38;;;19.10;58.90;;;;;;7925288;28;20188;-47
2022/03/13 06:03:23;;;;;;;6.60;3.00;;;19.10;59.00;;;;;;7936669;28;20200;-46
2022/03/13 06:07:09;;;;;;;13.27;3.35;;;19.20;59.10;;;;;;7936259;28;20226;-47
2022/03/13 06:10:55;;;;;;;61.78;7.03;;;19.20;59.00;;;;;;7913687;28;20618;-47
2022/03/13 06:14:40;;;;;;;18.23;4.82;;;19.30;59.50;;;;;;7904763;28;20230;-46
2022/03/13 06:18:27;;;;;;;14.85;3.60;;;19.30;59.40;;;;;;7904026;28;20187;-47
2022/03/13 06:22:12;;;;;;;11.07;3.28;;;19.30;59.40;;;;;;7904188;28;20203;-47
2022/03/13 06:25:59;;;;;;;12.40;3.47;;;19.30;59.30;;;;;;7904816;28;20638;-47
2022/03/13 06:29:45;;;;;;;18.63;3.83;;;19.40;58.90;;;;;;7904331;28;20209;-45
2022/03/13 06:33:30;;;;;;;26.10;5.03;;;19.40;58.60;;;;;;7904396;28;20196;-46
2022/03/13 06:37:16;;;;;;;18.17;3.65;;;19.30;59.00;;;;;;7904775;28;20250;-48
2022/03/13 06:41:01;;;;;;;13.07;3.20;;;19.40;59.10;;;;;;7903837;28;20180;-47
2022/03/13 06:44:47;;;;;;;22.15;3.65;;;19.30;59.10;;;;;;7904058;28;20227;-47
2022/03/13 06:48:32;;;;;;;13.43;3.45;;;19.40;59.30;;;;;;7904498;28;20195;-46
2022/03/13 06:52:18;;;;;;;18.90;3.90;;;19.30;59.30;;;;;;7903799;28;20374;-47
2022/03/13 06:56:04;;;;;;;17.25;4.15;;;19.40;59.40;;;;;;7907300;28;20181;-47
2022/03/13 06:59:50;;;;;;;17.55;4.25;;;19.40;59.10;;;;;;7920748;28;20253;-47
2022/03/13 07:03:35;;;;;;;21.65;4.18;;;19.40;59.10;;;;;;7906980;28;20236;-48
2022/03/13 07:07:21;;;;;;;14.10;3.78;;;19.40;59.30;;;;;;7919843;28;20188;-48
2022/03/13 07:11:06;;;;;;;16.73;3.85;;;19.40;59.20;;;;;;7905436;28;20212;-48
2022/03/13 07:14:56;;;;;;;12.40;3.42;;;19.40;59.30;;;;;;7905296;28;20208;-47
2022/03/13 07:18:43;;;;;;;12.55;3.72;;;19.40;59.30;;;;;;7906198;28;20180;-47
2022/03/13 07:22:28;;;;;;;13.63;3.22;;;19.30;59.20;;;;;;7920684;28;20204;-48
2022/03/13 07:26:14;;;;;;;15.40;3.58;;;19.40;59.30;;;;;;7934984;28;20224;-46
2022/03/13 07:29:59;;;;;;;13.48;3.20;;;19.40;59.30;;;;;;7933450;28;20361;-46
2022/03/13 07:33:45;;;;;;;7.07;3.45;;;19.40;59.20;;;;;;7933668;28;20203;-47
2022/03/13 07:37:30;;;;;;;11.30;3.50;;;19.40;59.20;;;;;;7934168;28;20229;-46
2022/03/13 07:41:16;;;;;;;10.90;3.17;;;19.40;59.20;;;;;;7930364;28;20191;-46
2022/03/13 07:45:01;;;;;;;11.80;3.45;;;19.40;59.20;;;;;;7907741;28;20672;-46
2022/03/13 07:48:47;;;;;;;10.05;3.58;;;19.40;59.20;;;;;;7905552;28;20322;-45
2022/03/13 07:52:32;;;;;;;10.60;3.40;;;19.40;59.20;;;;;;7905394;28;20222;-46
2022/03/13 07:56:18;;;;;;;16.85;3.00;;;19.40;59.20;;;;;;7902175;28;20313;-46
2022/03/13 08:00:04;;;;;;;15.05;3.63;;;19.40;59.20;;;;;;7901551;28;20669;-45
2022/03/13 08:03:51;;;;;;;12.88;3.25;;;19.40;59.10;;;;;;7901590;28;20208;-47
2022/03/13 08:07:36;;;;;;;9.02;3.33;;;19.40;59.20;;;;;;7901624;28;20184;-47
2022/03/13 08:11:22;;;;;;;16.42;3.90;;;19.50;59.20;;;;;;7901340;28;20200;-48
2022/03/13 08:15:08;;;;;;;7.65;3.30;;;19.40;59.10;;;;;;7901963;28;20657;-46
2022/03/13 08:18:54;;;;;;;9.75;3.17;;;19.40;59.20;;;;;;7904425;28;20711;-45
2022/03/13 08:22:40;;;;;;;12.05;3.03;;;19.50;59.50;;;;;;7901433;28;20588;-47
2022/03/13 08:26:27;;;;;;;9.85;3.58;;;19.50;59.30;;;;;;7909653;28;20615;-46
2022/03/13 08:30:13;;;;;;;5.85;2.85;;;19.40;59.20;;;;;;7930834;28;20199;-48
2022/03/13 08:33:59;;;;;;;8.35;3.28;;;19.50;59.20;;;;;;7932710;28;20192;-46
2022/03/13 08:37:44;;;;;;;5.95;2.97;;;19.40;59.20;;;;;;7932538;28;20582;-46
2022/03/13 08:41:30;;;;;;;6.45;3.45;;;19.50;59.20;;;;;;7931470;28;20176;-45
2022/03/13 08:45:15;;;;;;;9.68;3.50;;;19.50;59.30;;;;;;7932518;28;20191;-47
2022/03/13 08:49:01;;;;;;;7.00;2.95;;;19.40;59.40;;;;;;7932291;28;20199;-47
2022/03/13 08:52:48;;;;;;;9.52;3.58;;;19.40;59.40;;;;;;7932198;28;20327;-47
2022/03/13 08:56:33;;;;;;;11.05;3.28;;;19.50;59.50;;;;;;7932212;28;20175;-47
2022/03/13 09:00:21;;;;;;;7.32;3.50;;;19.50;59.40;;;;;;7931772;28;20240;-47
2022/03/13 09:04:06;;;;;;;10.05;3.20;;;19.50;59.40;;;;;;7904228;28;20295;-46
2022/03/13 09:07:52;;;;;;;6.63;2.75;;;19.50;59.50;;;;;;7900140;28;20188;-47
2022/03/13 09:11:38;;;;;;;4.93;2.65;;;19.50;59.30;;;;;;7900099;28;20208;-48
2022/03/13 09:15:24;;;;;;;9.77;3.25;;;19.50;59.40;;;;;;7900562;28;20260;-48
2022/03/13 09:19:09;;;;;;;7.50;3.40;;;19.50;59.30;;;;;;7899884;28;20254;-47
2022/03/13 09:22:55;;;;;;;7.68;3.03;;;19.50;59.30;;;;;;7900072;28;20189;-47
2022/03/13 09:26:41;;;;;;;9.55;3.33;;;19.50;59.30;;;;;;7900112;28;20251;-48
2022/03/13 09:30:26;;;;;;;6.55;3.53;;;19.50;59.20;;;;;;7900271;28;20203;-46
2022/03/13 09:34:12;;;;;;;5.57;3.28;;;19.50;59.30;;;;;;7900187;28;20193;-46
2022/03/13 09:37:58;;;;;;;6.15;2.97;;;19.50;59.30;;;;;;7900153;28;20177;-47
2022/03/13 09:41:43;;;;;;;5.82;3.47;;;19.50;59.30;;;;;;7899874;28;20196;-46
2022/03/13 09:45:29;;;;;;;5.25;3.20;;;19.60;59.30;;;;;;7898891;28;20184;-46
2022/03/13 09:49:16;;;;;;;4.65;2.85;;;19.60;59.30;;;;;;7899672;28;20197;-46
2022/03/13 09:53:02;;;;;;;6.03;2.85;;;19.60;59.30;;;;;;7901519;28;20685;-46
2022/03/13 09:56:48;;;;;;;5.88;2.90;;;19.60;59.30;;;;;;7916147;28;20183;-47
2022/03/13 10:00:36;;;;;;;4.50;2.63;;;19.60;59.60;;;;;;7905291;28;20188;-47
2022/03/13 10:04:21;;;;;;;9.82;3.33;;;19.70;59.60;;;;;;7905385;28;20275;-48
2022/03/13 10:08:07;;;;;;;4.38;3.08;;;19.60;59.40;;;;;;7905302;28;20234;-47
2022/03/13 10:12:02;;;;;;;11.38;3.35;;;19.60;59.40;;;;;;7904729;28;20247;-45
2022/03/13 10:15:50;;;;;;;5.07;2.75;;;19.60;59.30;;;;;;7913234;28;20180;-47
2022/03/13 10:19:35;;;;;;;9.77;3.20;;;19.60;59.50;;;;;;7920459;28;20190;-48
2022/03/13 10:23:22;;;;;;;5.57;3.22;;;19.60;59.50;;;;;;7904741;28;20220;-46
2022/03/13 10:27:09;;;;;;;4.88;3.00;;;19.60;59.30;;;;;;7904536;28;20544;-47
2022/03/13 10:30:58;;;;;;;5.88;3.22;;;19.60;59.50;;;;;;7904182;28;20325;-47
2022/03/13 10:34:56;;;;;;;6.72;3.10;;;19.60;59.60;;;;;;7904461;28;20197;-46
2022/03/13 10:38:46;;;;;;;8.98;3.35;;;19.60;59.50;;;;;;7904553;28;20180;-46
2022/03/13 10:42:38;;;;;;;4.38;2.75;;;19.60;59.50;;;;;;7903840;28;20239;-46
2022/03/13 10:46:28;;;;;;;4.32;2.88;;;19.60;59.50;;;;;;7904146;28;20606;-50
2022/03/13 10:50:16;;;;;;;4.63;2.85;;;19.60;59.50;;;;;;7903441;28;20262;-46
2022/03/13 10:54:03;;;;;;;5.45;2.90;;;19.60;59.50;;;;;;7903798;28;20189;-47
2022/03/13 10:57:54;;;;;;;9.82;3.40;;;19.70;59.60;;;;;;7903557;28;20680;-47
2022/03/13 11:01:41;;;;;;;6.55;3.55;;;19.60;59.60;;;;;;7903378;28;20309;-46
2022/03/13 11:05:27;;;;;;;6.00;2.95;;;19.70;59.50;;;;;;7903456;28;20184;-47
2022/03/13 11:09:12;;;;;;;6.93;3.30;;;19.60;59.50;;;;;;7903257;28;20173;-46
2022/03/13 11:12:58;;;;;;;5.95;2.95;;;19.60;59.50;;;;;;7903409;28;20200;-48
2022/03/13 11:16:44;;;;;;;6.88;2.70;;;19.60;59.60;;;;;;7903438;28;20176;-47
2022/03/13 11:20:30;;;;;;;6.50;2.95;;;19.60;59.50;;;;;;7916484;28;20195;-47
2022/03/13 11:24:17;;;;;;;6.30;3.03;;;19.70;59.40;;;;;;7934660;28;20231;-48
2022/03/13 11:28:03;;;;;;;6.03;2.97;;;19.60;59.60;;;;;;7934900;28;20187;-47
2022/03/13 11:31:49;;;;;;;5.18;2.85;;;19.60;59.50;;;;;;7934663;28;20203;-46
2022/03/13 11:35:35;;;;;;;6.40;3.40;;;19.60;59.40;;;;;;7932033;28;20701;-46
2022/03/13 11:39:27;;;;;;;7.85;2.95;;;19.60;59.50;;;;;;7934020;28;20546;-47
2022/03/13 11:43:18;;;;;;;11.40;3.38;;;19.60;59.60;;;;;;7916754;28;20197;-47
2022/03/13 11:47:21;;;;;;;11.32;2.72;;;19.60;59.60;;;;;;7909043;28;20233;-46
2022/03/13 11:51:07;;;;;;;8.90;2.80;;;19.60;59.70;;;;;;7916612;28;20213;-46
2022/03/13 11:54:56;;;;;;;3.97;2.70;;;19.70;59.70;;;;;;7916743;28;20219;-46
2022/03/13 11:58:48;;;;;;;13.43;3.28;;;19.60;59.70;;;;;;7916102;28;20169;-46
2022/03/13 12:02:43;;;;;;;9.88;2.88;;;19.70;59.70;;;;;;7915777;28;20204;-45
2022/03/13 12:06:39;;;;;;;7.25;2.45;;;19.70;59.60;;;;;;7915912;28;20180;-45
2022/03/13 12:10:35;;;;;;;6.97;3.17;;;19.60;59.60;;;;;;7915663;28;20195;-46
2022/03/13 12:14:20;;;;;;;10.25;3.33;;;19.60;59.50;;;;;;7915381;28;20279;-47
2022/03/13 12:18:27;;;;;;;8.65;3.80;;;19.60;59.50;;;;;;7916355;28;20175;-45
2022/03/13 12:22:14;;;;;;;14.50;5.97;;;19.60;59.80;;;;;;7916664;28;20199;-46
2022/03/13 12:26:21;;;;;;;17.08;6.78;;;19.60;59.80;;;;;;7914063;28;20657;-46
2022/03/13 12:30:07;;;;;;;26.95;9.98;;;19.60;60.00;;;;;;7915622;28;20203;-46
2022/03/13 12:33:54;;;;;;;13.77;5.88;;;19.60;60.00;;;;;;7915452;28;20819;-45
2022/03/13 12:37:52;;;;;;;32.03;10.73;;;19.60;60.30;;;;;;7917132;28;20179;-45
2022/03/13 12:41:43;;;;;;;29.25;11.68;;;19.60;60.20;;;;;;7916913;28;20218;-47
2022/03/13 12:45:29;;;;;;;34.00;11.02;;;19.60;60.20;;;;;;7915829;28;20180;-48
2022/03/13 12:49:16;;;;;;;26.65;12.38;;;19.60;60.20;;;;;;7915119;28;20203;-46
2022/03/13 12:53:02;;;;;;;26.13;12.52;;;19.60;60.20;;;;;;7914553;28;20193;-47
2022/03/13 12:56:52;;;;;;;32.22;14.20;;;19.60;60.20;;;;;;7914537;28;20180;-47
2022/03/13 13:00:40;;;;;;;33.88;14.32;;;19.70;60.20;;;;;;7914152;28;20233;-46
2022/03/13 13:04:26;;;;;;;24.05;13.45;;;19.60;60.10;;;;;;7916410;28;20192;-48
2022/03/13 13:08:11;;;;;;;30.35;13.70;;;19.60;60.00;;;;;;7915802;28;20210;-49
2022/03/13 13:11:58;;;;;;;28.98;12.18;;;19.60;60.00;;;;;;7914168;28;20689;-46
2022/03/13 13:15:44;;;;;;;23.67;10.70;;;19.60;60.20;;;;;;7915274;28;20199;-47
2022/03/13 13:19:35;;;;;;;26.73;10.40;;;19.60;60.20;;;;;;7915128;28;20177;-46
2022/03/13 13:23:29;;;;;;;26.17;10.57;;;19.70;60.40;;;;;;7913289;28;20222;-47
2022/03/13 13:27:28;;;;;;;27.05;11.10;;;19.70;60.10;;;;;;7916740;28;20532;-48
2022/03/13 13:31:14;;;;;;;28.60;9.38;;;19.70;60.20;;;;;;7922273;28;20196;-47
2022/03/13 13:35:10;;;;;;;26.25;9.95;;;19.70;60.20;;;;;;7920835;28;20252;-46
2022/03/13 13:39:05;;;;;;;20.48;8.85;;;19.60;60.10;;;;;;7922061;28;20172;-46
2022/03/13 13:43:00;;;;;;;20.08;8.93;;;19.70;60.40;;;;;;7921624;28;20200;-47
2022/03/13 13:46:45;;;;;;;20.30;8.98;;;19.70;60.20;;;;;;7920928;28;20244;-46
2022/03/13 13:50:31;;;;;;;17.05;7.63;;;19.70;60.10;;;;;;7919418;28;20226;-46
2022/03/13 13:54:18;;;;;;;19.13;7.45;;;19.70;60.10;;;;;;7921925;28;20197;-46
2022/03/13 13:58:23;;;;;;;23.38;7.90;;;19.70;60.10;;;;;;7919851;28;20169;-46
2022/03/13 14:02:08;;;;;;;12.00;6.88;;;19.70;60.00;;;;;;7920010;28;20203;-46
2022/03/13 14:05:54;;;;;;;9.93;5.93;;;19.70;60.00;;;;;;7919689;28;20172;-45
2022/03/13 14:09:40;;;;;;;14.43;6.55;;;19.70;59.90;;;;;;7921106;28;20192;-45
2022/03/13 14:13:25;;;;;;;15.05;6.63;;;19.70;60.00;;;;;;7919447;28;20214;-46
2022/03/13 14:17:11;;;;;;;9.05;5.88;;;19.70;59.90;;;;;;7919922;28;20172;-45
2022/03/13 14:20:57;;;;;;;13.52;5.97;;;19.70;60.80;;;;;;7920669;28;20173;-46
2022/03/13 14:24:42;;;;;;;17.25;6.70;;;19.70;59.90;;;;;;7900649;28;20680;-47
2022/03/13 14:28:28;;;;;;;11.77;6.18;;;19.70;60.00;;;;;;7920111;28;20255;-45
2022/03/13 14:32:13;;;;;;;11.40;7.00;;;19.70;59.90;;;;;;7919839;28;20209;-48
2022/03/13 14:35:59;;;;;;;14.63;5.88;;;19.70;60.00;;;;;;7918537;28;20196;-46
2022/03/13 14:39:45;;;;;;;10.30;5.72;;;19.70;59.90;;;;;;7908925;28;20184;-47
2022/03/13 14:43:30;;;;;;;14.35;6.10;;;19.60;60.00;;;;;;7904713;28;20201;-45
2022/03/13 14:47:16;;;;;;;17.17;6.72;;;19.60;60.00;;;;;;7904208;28;20192;-46
2022/03/13 14:51:02;;;;;;;12.35;6.15;;;19.70;60.30;;;;;;7903694;28;20318;-48
2022/03/13 14:54:47;;;;;;;11.40;5.43;;;19.60;60.00;;;;;;7904018;28;20242;-48
2022/03/13 14:58:35;;;;;;;9.93;5.63;;;19.60;60.00;;;;;;7903969;28;20177;-46
2022/03/13 15:02:20;;;;;;;13.90;5.88;;;19.60;60.10;;;;;;7903569;28;20245;-46
2022/03/13 15:06:06;;;;;;;13.20;5.80;;;19.70;60.20;;;;;;7903662;28;20172;-47
2022/03/13 15:09:51;;;;;;;10.15;5.85;;;19.60;60.20;;;;;;7903141;28;20198;-47
2022/03/13 15:13:37;;;;;;;15.07;5.30;;;19.60;60.30;;;;;;7903274;28;20196;-46
2022/03/13 15:17:23;;;;;;;11.75;5.53;;;19.60;60.30;;;;;;7903215;28;20189;-47
2022/03/13 15:21:08;;;;;;;11.07;5.30;;;19.60;60.30;;;;;;7902753;28;20172;-47
2022/03/13 15:24:54;;;;;;;7.95;5.07;;;19.50;60.20;;;;;;7902788;28;20204;-48
2022/03/13 15:28:40;;;;;;;10.52;5.15;;;19.50;60.30;;;;;;7916943;28;20208;-47
2022/03/13 15:32:26;;;;;;;15.15;5.63;;;19.50;60.50;;;;;;7932895;28;20356;-48
2022/03/13 15:36:12;;;;;;;10.13;5.18;;;19.50;60.80;;;;;;7929508;28;20805;-47
2022/03/13 15:39:57;;;;;;;10.68;5.00;;;19.50;60.80;;;;;;7933482;28;20621;-46
2022/03/13 15:43:43;;;;;;;12.63;5.47;;;19.50;60.70;;;;;;7934003;28;20202;-47
2022/03/13 15:47:29;;;;;;;13.80;5.05;;;19.50;60.70;;;;;;7933845;28;20688;-46
2022/03/13 15:51:14;;;;;;;10.80;5.15;;;19.40;61.50;;;;;;7932347;28;20211;-47
2022/03/13 15:55:00;;;;;;;11.70;5.70;;;19.40;60.70;;;;;;7933545;28;20543;-46
2022/03/13 15:58:45;;;;;;;11.68;4.70;;;19.40;60.70;;;;;;7932407;28;20646;-46
2022/03/13 16:02:31;;;;;;;10.93;4.72;;;19.40;60.80;;;;;;7933054;28;20219;-46
2022/03/13 16:06:17;;;;;;;8.77;4.80;;;19.40;60.80;;;;;;7933362;28;20259;-46
2022/03/13 16:10:03;;;;;;;10.65;5.05;;;19.30;60.70;;;;;;7933181;28;20195;-46
2022/03/13 16:13:48;;;;;;;10.13;4.43;;;19.30;60.70;;;;;;7933101;28;20241;-47
2022/03/13 16:17:35;;;;;;;9.38;4.35;;;19.30;60.70;;;;;;7933018;28;20171;-46
2022/03/13 16:21:22;;;;;;;9.75;4.40;;;19.30;60.70;;;;;;7932656;28;20233;-46
2022/03/13 16:25:11;;;;;;;7.90;4.50;;;19.30;60.80;;;;;;7932828;28;20225;-47
2022/03/13 16:28:56;;;;;;;5.45;3.95;;;19.30;60.70;;;;;;7932874;28;20172;-46
2022/03/13 16:32:42;;;;;;;10.25;4.57;;;19.30;60.80;;;;;;7932332;28;20218;-47
2022/03/13 16:36:28;;;;;;;15.35;5.15;;;19.30;60.70;;;;;;7928784;28;20205;-47
2022/03/13 16:40:14;;;;;;;12.95;5.07;;;19.30;61.00;;;;;;7929644;28;20183;-46
2022/03/13 16:43:59;;;;;;;8.95;4.20;;;19.30;60.80;;;;;;7932679;28;20559;-47
2022/03/13 16:47:45;;;;;;;10.68;4.57;;;19.30;60.50;;;;;;7932119;28;20557;-48
2022/03/13 16:51:30;;;;;;;15.18;4.93;;;19.30;60.30;;;;;;7931810;28;20582;-49
2022/03/13 16:55:16;;;;;;;25.83;5.00;;;19.20;60.40;;;;;;7907948;28;20185;-46
2022/03/13 16:59:02;;;;;;;10.90;4.35;;;19.20;60.60;;;;;;7900609;28;20177;-48
2022/03/13 17:02:49;;;;;;;11.75;4.60;;;19.20;60.00;;;;;;7899920;28;20200;-47
2022/03/13 17:06:35;;;;;;;15.35;4.78;;;19.30;59.90;;;;;;7900417;28;20186;-46
2022/03/13 17:10:21;;;;;;;12.70;4.43;;;19.30;59.90;;;;;;7900281;28;20299;-47
2022/03/13 17:14:07;;;;;;;17.10;4.82;;;19.20;60.20;;;;;;7899986;28;20192;-46
2022/03/13 17:17:55;;;;;;;11.10;4.57;;;19.20;60.50;;;;;;7900087;28;20658;-46
2022/03/13 17:21:42;;;;;;;23.15;4.80;;;19.30;61.20;;;;;;7899846;28;20224;-46
2022/03/13 17:25:27;;;;;;;17.63;4.78;;;19.40;62.50;;;;;;7900072;28;20184;-47
2022/03/13 17:29:13;;;;;;;20.15;4.30;;;19.50;63.70;;;;;;7899957;28;20172;-47
2022/03/13 17:33:01;;;;;;;12.65;3.88;;;19.60;64.00;;;;;;7899592;28;20204;-46
2022/03/13 17:36:47;;;;;;;16.75;4.22;;;19.70;64.10;;;;;;7899830;28;20224;-46
2022/03/13 17:40:33;;;;;;;17.40;4.32;;;19.80;64.20;;;;;;7899751;28;20176;-46
2022/03/13 17:44:20;;;;;;;12.95;4.28;;;19.90;64.20;;;;;;7900041;28;20201;-46
2022/03/13 17:48:06;;;;;;;17.00;4.05;;;19.90;64.10;;;;;;7919255;28;20270;-46
2022/03/13 17:51:51;;;;;;;14.73;4.30;;;20.00;64.20;;;;;;7930672;28;20227;-46
2022/03/13 17:55:37;;;;;;;10.00;4.03;;;20.10;64.20;;;;;;7931207;28;20210;-46
2022/03/13 17:59:22;;;;;;;21.58;4.05;;;20.10;64.20;;;;;;7930882;28;20172;-46
2022/03/13 18:03:08;;;;;;;11.07;3.83;;;20.10;64.20;;;;;;7930746;28;20204;-56
2022/03/13 18:06:55;;;;;;;22.70;4.70;;;20.10;64.20;;;;;;7928726;28;20191;-48
2022/03/13 18:10:40;;;;;;;14.30;4.15;;;20.20;64.40;;;;;;7929608;28;20195;-47
2022/03/13 18:14:26;;;;;;;11.68;3.80;;;20.20;65.10;;;;;;7932087;28;20249;-46
2022/03/13 18:18:11;;;;;;;7.78;3.58;;;20.30;65.30;;;;;;7919373;28;20256;-46
2022/03/13 18:21:57;;;;;;;16.25;3.83;;;20.30;65.50;;;;;;7921270;28;20769;-47
2022/03/13 18:25:43;;;;;;;11.20;4.03;;;20.30;65.60;;;;;;7935592;28;20179;-49
2022/03/13 18:29:28;;;;;;;8.43;3.47;;;20.30;65.80;;;;;;7935310;27;20717;-46
2022/03/13 18:33:14;;;;;;;11.80;3.65;;;20.30;65.80;;;;;;7935282;28;20203;-46
2022/03/13 18:36:59;;;;;;;9.88;3.45;;;20.30;65.80;;;;;;7929956;28;20182;-47
2022/03/13 18:40:45;;;;;;;7.05;3.50;;;20.40;66.00;;;;;;7934719;28;20186;-47
2022/03/13 18:44:30;;;;;;;8.13;3.45;;;20.30;66.00;;;;;;7935050;28;20204;-46
2022/03/13 18:48:16;;;;;;;18.98;4.07;;;20.30;66.10;;;;;;7934812;28;20264;-46
2022/03/13 18:52:03;;;;;;;10.60;3.95;;;20.30;66.10;;;;;;7934079;28;20220;-46
2022/03/13 18:55:49;;;;;;;9.93;3.50;;;20.30;66.50;;;;;;7934771;28;20182;-46
2022/03/13 18:59:35;;;;;;;10.23;3.25;;;20.30;66.60;;;;;;7905520;28;20625;-47
2022/03/13 19:03:21;;;;;;;13.85;3.33;;;20.30;66.70;;;;;;7902389;28;20249;-46
2022/03/13 19:07:06;;;;;;;19.42;4.65;;;20.40;66.70;;;;;;7902785;28;20164;-48
2022/03/13 19:10:52;;;;;;;25.25;3.60;;;20.40;66.60;;;;;;7901930;28;20671;-46
2022/03/13 19:14:41;;;;;;;21.60;4.20;;;20.50;66.30;;;;;;7902340;28;20681;-46
2022/03/13 19:18:26;;;;;;;16.70;4.30;;;20.60;66.20;;;;;;7902044;28;20177;-46
2022/03/13 19:22:15;;;;;;;21.17;4.50;;;20.70;66.00;;;;;;7901918;28;20295;-50
2022/03/13 19:26:00;;;;;;;23.05;3.63;;;20.90;66.40;;;;;;7918760;28;20196;-47
2022/03/13 19:29:46;;;;;;;25.05;4.13;;;21.10;66.50;;;;;;7900787;28;20216;-46